OIMN

Details ICAO OIMN (BJB)
Name BOJNORD
Region Iran
Timezone Asia/Tehran (UTC+4.5)
Plans Departing 20
Arriving 5
Stats Elevation 3,499 ft / 1,066 m (AMSL)
Location 37.492957° 57.308219°
Runways 1
Magnetic Variation 4.921° E
Sunrise 2018-05-24 00:56:50 UTC / 2018-05-24 05:26:50 Local
Sunset 2018-05-24 15:21:13 UTC / 2018-05-24 19:51:13 Local
Advertisement - Login to hide

Runways

ID Width Length Bearing (true) Bearing (mag) Surface Threshold Offset Overrun Length
07 148 ft / 45 m 10,565 ft / 3,220 m 70.19° 65.27° Asphalt 1,957 ft / 596 m 150 ft / 46 m
25 148 ft / 45 m 10,565 ft / 3,220 m 250.21° 245.29° Asphalt 0 ft / 0 m 0 ft / 0 m

Map

Weather


0- 5 10 15 20 25 30 35+ Temperature / ° C

Clouds and Precipitation
Forecast for 2018-05-24 00:00 UTC. Updated 4 hours ago

Ground ~20,000 ft ~40,000 ft Winds

METAR

OIMN 240200Z 00000KT CAVOK 11/03 Q1022

TAF

Not found

Frequencies

Tower 121.90 MHz INFO
Tower 118.20 MHz INFO
Warning: Do not use this data for real-world aviation or navigation. No guarantee of current accuracy is given.